Terminal Aerodrome Forecast
Issued by NWS Twin Cities, MN

Home | Current Version | Previous Version | Graphics & Text | Print | Product List | Glossary On
Versions: 1 2 3 4 5 6 7 8 9 10 11 12 13
000
FTUS43 KMPX 210520
TAFEAU
TAF
KEAU 210520Z 2106/2206 12010KT 6SM BR VCSH OVC007
     FM210700 12008KT 3SM -DZRA BR OVC004
     FM211000 17005KT P6SM SCT010 BKN040
     FM211400 21009KT P6SM SCT007 OVC013
     FM211800 25012G19KT P6SM VCSH SCT008 OVC014
     FM220000 26010KT P6SM OVC018=

USA.gov is the U.S. government's official web portal to all federal, state and local government web resources and services.